Kezdőlap
METAR-TAF:

METAR-TAF

Repülőterek :

Ciudad Guayana, Venezuela

földrajzi szélesség: 08-18N, földrajzi hosszúság: 062-44W, magasság: 144 m

METAR: hiányzik

Idő: 03:02 (07:02 UTC)

Előrejelzés

A jelentés 3 órával és 2 perccel ezelõtt készült, 04:00 UTC
Az előrejelzés 13-én 06 óra UTC és 14-én 06 óra UTC között érvényes
Északi szél 5 kt
Látótávolság 10 km, vagy több
Szórványos felhőzet 2000 lábon
13-én 05 óra UTC és 13-én 07 óra UTC között ideiglenes
Kelet-északkeleti szél 4 kt
Látótávolság: 9000 m
Szakadozott felhőzet 1600 lábon
Szakadozott felhőzet 10000 lábon
enyhe szitálás,

TAF: SVPR 130400Z 1306/1406 01005KT 9999 SCT020 TX31/1305Z TN23/1308Z TEMPO 1305/1307 06004KT 9000 -DZ BKN016 BKN100

Meteorológiai megfigyelések és előrejelzések több, mint 4000 repülőtéren (METAR és TAF jelentéseket).

A térképen piros és sárga pontok jelzik az elérhető meteorológiai állomásokat.

Mozgassa az egeret a pont fölött, hogy megjelenjen az állomás neve.

Azután kattintson az időjárási megfigyelések és előrejelzések megtekintéséhez.

A térkép megváltoztatása: kattintson a fekete keresztel jelölt zöld gombra ráközelítéshez, a vonallal jelölt zöld gombra távolításhoz, vagy a zöld nyilakra a szomszédos térképek eléréséhez.


METAR-TAF: